sensor_id;sensor_type;location;lat;lon;timestamp;pressure;altitude;pressure_sealevel;temperature
16956;BMP180;8594;52.052;8.354;2022-10-28T00:01:26;101074.00;;;20.20
16956;BMP180;8594;52.052;8.354;2022-10-28T00:03:55;101068.00;;;20.10
16956;BMP180;8594;52.052;8.354;2022-10-28T00:06:26;101060.00;;;20.20
16956;BMP180;8594;52.052;8.354;2022-10-28T00:08:55;101053.00;;;20.20
16956;BMP180;8594;52.052;8.354;2022-10-28T00:11:25;101028.00;;;20.60
16956;BMP180;8594;52.052;8.354;2022-10-28T00:13:54;101000.00;;;20.20
16956;BMP180;8594;52.052;8.354;2022-10-28T00:16:24;101029.00;;;20.20
16956;BMP180;8594;52.052;8.354;2022-10-28T00:18:52;101070.00;;;20.10
16956;BMP180;8594;52.052;8.354;2022-10-28T00:21:25;101055.00;;;20.20
16956;BMP180;8594;52.052;8.354;2022-10-28T00:23:52;101057.00;;;19.90
16956;BMP180;8594;52.052;8.354;2022-10-28T00:26:22;101057.00;;;20.20
16956;BMP180;8594;52.052;8.354;2022-10-28T00:28:52;101059.00;;;20.10
16956;BMP180;8594;52.052;8.354;2022-10-28T00:31:23;101060.00;;;20.00
16956;BMP180;8594;52.052;8.354;2022-10-28T00:33:50;101055.00;;;19.90
16956;BMP180;8594;52.052;8.354;2022-10-28T00:36:20;101051.00;;;20.30
16956;BMP180;8594;52.052;8.354;2022-10-28T00:38:51;101045.00;;;20.20
16956;BMP180;8594;52.052;8.354;2022-10-28T00:41:21;101049.00;;;20.10
16956;BMP180;8594;52.052;8.354;2022-10-28T00:43:51;101057.00;;;20.00
16956;BMP180;8594;52.052;8.354;2022-10-28T00:46:27;101046.00;;;20.00
16956;BMP180;8594;52.052;8.354;2022-10-28T00:49:02;101037.00;;;20.50
16956;BMP180;8594;52.052;8.354;2022-10-28T00:51:34;101040.00;;;20.70
16956;BMP180;8594;52.052;8.354;2022-10-28T00:54:04;101029.00;;;20.80
16956;BMP180;8594;52.052;8.354;2022-10-28T00:56:36;101037.00;;;20.70
16956;BMP180;8594;52.052;8.354;2022-10-28T00:59:16;101037.00;;;20.40
16956;BMP180;8594;52.052;8.354;2022-10-28T01:01:45;101035.00;;;20.60
16956;BMP180;8594;52.052;8.354;2022-10-28T01:04:12;101023.00;;;20.80
16956;BMP180;8594;52.052;8.354;2022-10-28T01:06:41;101021.00;;;20.70
16956;BMP180;8594;52.052;8.354;2022-10-28T01:09:09;101019.00;;;20.90
16956;BMP180;8594;52.052;8.354;2022-10-28T01:11:53;100998.00;;;20.70
16956;BMP180;8594;52.052;8.354;2022-10-28T01:14:40;101011.00;;;20.60
16956;BMP180;8594;52.052;8.354;2022-10-28T01:17:31;101005.00;;;20.90
16956;BMP180;8594;52.052;8.354;2022-10-28T01:20:43;101005.00;;;21.10
16956;BMP180;8594;52.052;8.354;2022-10-28T01:23:20;100994.00;;;21.00
16956;BMP180;8594;52.052;8.354;2022-10-28T01:26:28;100985.00;;;21.20
16956;BMP180;8594;52.052;8.354;2022-10-28T01:32:20;100989.00;;;21.10
16956;BMP180;8594;52.052;8.354;2022-10-28T01:35:03;100996.00;;;21.20
16956;BMP180;8594;52.052;8.354;2022-10-28T01:37:39;100994.00;;;21.20
16956;BMP180;8594;52.052;8.354;2022-10-28T01:40:17;100987.00;;;21.20
16956;BMP180;8594;52.052;8.354;2022-10-28T01:42:53;100993.00;;;21.30
16956;BMP180;8594;52.052;8.354;2022-10-28T01:45:29;100993.00;;;21.30
16956;BMP180;8594;52.052;8.354;2022-10-28T01:48:04;100990.00;;;21.30
16956;BMP180;8594;52.052;8.354;2022-10-28T01:50:39;100985.00;;;21.30
16956;BMP180;8594;52.052;8.354;2022-10-28T01:53:16;100977.00;;;21.00
16956;BMP180;8594;52.052;8.354;2022-10-28T01:55:48;100968.00;;;21.30
16956;BMP180;8594;52.052;8.354;2022-10-28T01:58:23;100966.00;;;21.40
16956;BMP180;8594;52.052;8.354;2022-10-28T02:00:53;100964.00;;;21.50
16956;BMP180;8594;52.052;8.354;2022-10-28T02:03:22;100947.00;;;21.20
16956;BMP180;8594;52.052;8.354;2022-10-28T02:05:53;100946.00;;;21.30
16956;BMP180;8594;52.052;8.354;2022-10-28T02:08:38;100948.00;;;21.00
16956;BMP180;8594;52.052;8.354;2022-10-28T02:11:27;100938.00;;;21.30
16956;BMP180;8594;52.052;8.354;2022-10-28T02:14:08;100937.00;;;21.40
16956;BMP180;8594;52.052;8.354;2022-10-28T02:16:47;100932.00;;;21.60
16956;BMP180;8594;52.052;8.354;2022-10-28T02:19:27;100935.00;;;21.40
16956;BMP180;8594;52.052;8.354;2022-10-28T02:22:12;100928.00;;;21.60
16956;BMP180;8594;52.052;8.354;2022-10-28T02:24:54;100934.00;;;21.70
16956;BMP180;8594;52.052;8.354;2022-10-28T02:27:33;100924.00;;;21.70
16956;BMP180;8594;52.052;8.354;2022-10-28T02:30:07;100930.00;;;21.50
16956;BMP180;8594;52.052;8.354;2022-10-28T02:32:41;100927.00;;;21.40
16956;BMP180;8594;52.052;8.354;2022-10-28T02:35:16;100930.00;;;21.50
16956;BMP180;8594;52.052;8.354;2022-10-28T02:37:47;100918.00;;;21.60
16956;BMP180;8594;52.052;8.354;2022-10-28T02:40:21;100921.00;;;21.60
16956;BMP180;8594;52.052;8.354;2022-10-28T02:42:54;100926.00;;;21.50
16956;BMP180;8594;52.052;8.354;2022-10-28T02:45:28;100918.00;;;21.40
16956;BMP180;8594;52.052;8.354;2022-10-28T02:48:01;100915.00;;;21.30
16956;BMP180;8594;52.052;8.354;2022-10-28T02:50:35;100910.00;;;21.50
16956;BMP180;8594;52.052;8.354;2022-10-28T02:53:14;100912.00;;;21.80
16956;BMP180;8594;52.052;8.354;2022-10-28T02:55:46;100910.00;;;21.70
16956;BMP180;8594;52.052;8.354;2022-10-28T02:58:15;100920.00;;;21.40
16956;BMP180;8594;52.052;8.354;2022-10-28T03:00:44;100925.00;;;21.40
16956;BMP180;8594;52.052;8.354;2022-10-28T03:03:11;100915.00;;;21.30
16956;BMP180;8594;52.052;8.354;2022-10-28T03:05:40;100920.00;;;21.00
16956;BMP180;8594;52.052;8.354;2022-10-28T03:08:07;100915.00;;;21.00
16956;BMP180;8594;52.052;8.354;2022-10-28T03:10:34;100915.00;;;20.90
16956;BMP180;8594;52.052;8.354;2022-10-28T03:13:01;100907.00;;;21.10
16956;BMP180;8594;52.052;8.354;2022-10-28T03:15:28;100914.00;;;21.10
16956;BMP180;8594;52.052;8.354;2022-10-28T03:17:55;100913.00;;;21.00
16956;BMP180;8594;52.052;8.354;2022-10-28T03:20:22;100907.00;;;20.60
16956;BMP180;8594;52.052;8.354;2022-10-28T03:22:50;100905.00;;;21.10
16956;BMP180;8594;52.052;8.354;2022-10-28T03:25:17;100912.00;;;20.80
16956;BMP180;8594;52.052;8.354;2022-10-28T03:27:44;100904.00;;;21.10
16956;BMP180;8594;52.052;8.354;2022-10-28T03:30:11;100897.00;;;21.30
16956;BMP180;8594;52.052;8.354;2022-10-28T03:32:40;100905.00;;;21.30
16956;BMP180;8594;52.052;8.354;2022-10-28T03:35:08;100889.00;;;21.10
16956;BMP180;8594;52.052;8.354;2022-10-28T03:37:35;100898.00;;;21.20
16956;BMP180;8594;52.052;8.354;2022-10-28T03:40:04;100886.00;;;20.90
16956;BMP180;8594;52.052;8.354;2022-10-28T03:42:32;100896.00;;;21.00
16956;BMP180;8594;52.052;8.354;2022-10-28T03:44:59;100893.00;;;20.90
16956;BMP180;8594;52.052;8.354;2022-10-28T03:47:26;100886.00;;;21.10
16956;BMP180;8594;52.052;8.354;2022-10-28T03:49:53;100897.00;;;21.20
16956;BMP180;8594;52.052;8.354;2022-10-28T03:52:20;100899.00;;;21.40
16956;BMP180;8594;52.052;8.354;2022-10-28T03:54:47;100898.00;;;21.10
16956;BMP180;8594;52.052;8.354;2022-10-28T03:57:15;100886.00;;;21.20
16956;BMP180;8594;52.052;8.354;2022-10-28T03:59:42;100892.00;;;21.10
16956;BMP180;8594;52.052;8.354;2022-10-28T04:02:09;100893.00;;;21.20
16956;BMP180;8594;52.052;8.354;2022-10-28T04:04:36;100886.00;;;21.10
16956;BMP180;8594;52.052;8.354;2022-10-28T04:07:02;100885.00;;;21.30
16956;BMP180;8594;52.052;8.354;2022-10-28T04:09:29;100884.00;;;21.30
16956;BMP180;8594;52.052;8.354;2022-10-28T04:11:56;100879.00;;;21.10
16956;BMP180;8594;52.052;8.354;2022-10-28T04:14:24;100872.00;;;21.30
16956;BMP180;8594;52.052;8.354;2022-10-28T04:16:51;100868.00;;;21.10
16956;BMP180;8594;52.052;8.354;2022-10-28T04:19:18;100876.00;;;21.30
16956;BMP180;8594;52.052;8.354;2022-10-28T04:21:45;100877.00;;;21.30
16956;BMP180;8594;52.052;8.354;2022-10-28T04:24:12;100871.00;;;21.20
16956;BMP180;8594;52.052;8.354;2022-10-28T04:26:39;100875.00;;;21.10
16956;BMP180;8594;52.052;8.354;2022-10-28T04:29:06;100870.00;;;20.80
16956;BMP180;8594;52.052;8.354;2022-10-28T04:31:35;100873.00;;;21.00
16956;BMP180;8594;52.052;8.354;2022-10-28T04:34:02;100874.00;;;21.20
16956;BMP180;8594;52.052;8.354;2022-10-28T04:36:29;100882.00;;;21.10
16956;BMP180;8594;52.052;8.354;2022-10-28T04:38:55;100870.00;;;20.80
16956;BMP180;8594;52.052;8.354;2022-10-28T04:41:22;100863.00;;;21.00
16956;BMP180;8594;52.052;8.354;2022-10-28T04:43:49;100868.00;;;21.30
16956;BMP180;8594;52.052;8.354;2022-10-28T04:46:16;100868.00;;;20.70
16956;BMP180;8594;52.052;8.354;2022-10-28T04:48:45;100860.00;;;20.60
16956;BMP180;8594;52.052;8.354;2022-10-28T04:51:13;100862.00;;;20.70
16956;BMP180;8594;52.052;8.354;2022-10-28T04:53:40;100865.00;;;20.50
16956;BMP180;8594;52.052;8.354;2022-10-28T04:56:08;100864.00;;;20.80
16956;BMP180;8594;52.052;8.354;2022-10-28T04:58:35;100865.00;;;20.60
16956;BMP180;8594;52.052;8.354;2022-10-28T05:01:05;100864.00;;;20.60
16956;BMP180;8594;52.052;8.354;2022-10-28T05:03:32;100852.00;;;20.40
16956;BMP180;8594;52.052;8.354;2022-10-28T05:06:01;100856.00;;;20.30
16956;BMP180;8594;52.052;8.354;2022-10-28T05:08:28;100855.00;;;20.30
16956;BMP180;8594;52.052;8.354;2022-10-28T05:10:55;100855.00;;;20.50
16956;BMP180;8594;52.052;8.354;2022-10-28T05:13:22;100852.00;;;20.30
16956;BMP180;8594;52.052;8.354;2022-10-28T05:15:50;100851.00;;;20.70
16956;BMP180;8594;52.052;8.354;2022-10-28T05:18:17;100854.00;;;20.50
16956;BMP180;8594;52.052;8.354;2022-10-28T05:20:44;100854.00;;;20.30
16956;BMP180;8594;52.052;8.354;2022-10-28T05:23:12;100855.00;;;20.30
16956;BMP180;8594;52.052;8.354;2022-10-28T05:25:39;100856.00;;;20.10
16956;BMP180;8594;52.052;8.354;2022-10-28T05:28:08;100853.00;;;20.10
16956;BMP180;8594;52.052;8.354;2022-10-28T05:30:35;100844.00;;;20.00
16956;BMP180;8594;52.052;8.354;2022-10-28T05:33:03;100848.00;;;20.10
16956;BMP180;8594;52.052;8.354;2022-10-28T05:35:30;100853.00;;;20.20
16956;BMP180;8594;52.052;8.354;2022-10-28T05:37:58;100843.00;;;20.40
16956;BMP180;8594;52.052;8.354;2022-10-28T05:40:26;100844.00;;;20.10
16956;BMP180;8594;52.052;8.354;2022-10-28T05:42:53;100848.00;;;19.90
16956;BMP180;8594;52.052;8.354;2022-10-28T05:45:20;100847.00;;;19.80
16956;BMP180;8594;52.052;8.354;2022-10-28T05:47:47;100851.00;;;19.60
16956;BMP180;8594;52.052;8.354;2022-10-28T05:50:16;100861.00;;;19.90
16956;BMP180;8594;52.052;8.354;2022-10-28T05:52:45;100864.00;;;19.70
16956;BMP180;8594;52.052;8.354;2022-10-28T05:55:13;100867.00;;;19.60
16956;BMP180;8594;52.052;8.354;2022-10-28T05:57:41;100865.00;;;19.50
16956;BMP180;8594;52.052;8.354;2022-10-28T06:00:11;100860.00;;;19.50
16956;BMP180;8594;52.052;8.354;2022-10-28T06:02:38;100864.00;;;19.40
16956;BMP180;8594;52.052;8.354;2022-10-28T06:05:06;100865.00;;;19.50
16956;BMP180;8594;52.052;8.354;2022-10-28T06:07:33;100869.00;;;19.30
16956;BMP180;8594;52.052;8.354;2022-10-28T06:10:00;100882.00;;;19.40
16956;BMP180;8594;52.052;8.354;2022-10-28T06:12:27;100882.00;;;19.20
16956;BMP180;8594;52.052;8.354;2022-10-28T06:14:56;100877.00;;;19.20
16956;BMP180;8594;52.052;8.354;2022-10-28T06:17:23;100882.00;;;19.70
16956;BMP180;8594;52.052;8.354;2022-10-28T06:19:50;100874.00;;;19.90
16956;BMP180;8594;52.052;8.354;2022-10-28T06:22:17;100878.00;;;19.70
16956;BMP180;8594;52.052;8.354;2022-10-28T06:24:44;100874.00;;;19.60
16956;BMP180;8594;52.052;8.354;2022-10-28T06:27:11;100874.00;;;19.50
16956;BMP180;8594;52.052;8.354;2022-10-28T06:29:38;100863.00;;;19.90
16956;BMP180;8594;52.052;8.354;2022-10-28T06:32:10;100880.00;;;19.90
16956;BMP180;8594;52.052;8.354;2022-10-28T06:34:36;100867.00;;;19.70
16956;BMP180;8594;52.052;8.354;2022-10-28T06:37:04;100882.00;;;20.20
16956;BMP180;8594;52.052;8.354;2022-10-28T06:39:32;100878.00;;;20.20
16956;BMP180;8594;52.052;8.354;2022-10-28T06:41:59;100882.00;;;20.20
16956;BMP180;8594;52.052;8.354;2022-10-28T06:44:26;100886.00;;;20.10
16956;BMP180;8594;52.052;8.354;2022-10-28T06:46:54;100889.00;;;20.20
16956;BMP180;8594;52.052;8.354;2022-10-28T06:49:24;100891.00;;;20.60
16956;BMP180;8594;52.052;8.354;2022-10-28T06:51:51;100890.00;;;20.70
16956;BMP180;8594;52.052;8.354;2022-10-28T06:54:19;100890.00;;;20.70
16956;BMP180;8594;52.052;8.354;2022-10-28T06:56:46;100895.00;;;21.10
16956;BMP180;8594;52.052;8.354;2022-10-28T06:59:13;100890.00;;;21.40
16956;BMP180;8594;52.052;8.354;2022-10-28T07:01:40;100899.00;;;21.40
16956;BMP180;8594;52.052;8.354;2022-10-28T07:04:11;100901.00;;;21.80
16956;BMP180;8594;52.052;8.354;2022-10-28T07:06:40;100905.00;;;22.00
16956;BMP180;8594;52.052;8.354;2022-10-28T07:09:09;100903.00;;;22.30
16956;BMP180;8594;52.052;8.354;2022-10-28T07:11:38;100909.00;;;22.50
16956;BMP180;8594;52.052;8.354;2022-10-28T07:14:08;100912.00;;;22.40
16956;BMP180;8594;52.052;8.354;2022-10-28T07:16:35;100914.00;;;22.60
16956;BMP180;8594;52.052;8.354;2022-10-28T07:19:02;100914.00;;;22.40
16956;BMP180;8594;52.052;8.354;2022-10-28T07:21:29;100907.00;;;22.40
16956;BMP180;8594;52.052;8.354;2022-10-28T07:23:57;100920.00;;;22.70
16956;BMP180;8594;52.052;8.354;2022-10-28T07:26:25;100915.00;;;22.40
16956;BMP180;8594;52.052;8.354;2022-10-28T07:28:52;100920.00;;;22.60
16956;BMP180;8594;52.052;8.354;2022-10-28T07:31:20;100910.00;;;23.10
16956;BMP180;8594;52.052;8.354;2022-10-28T07:33:50;100917.00;;;23.40
16956;BMP180;8594;52.052;8.354;2022-10-28T07:36:18;100909.00;;;23.50
16956;BMP180;8594;52.052;8.354;2022-10-28T07:38:48;100913.00;;;23.90
16956;BMP180;8594;52.052;8.354;2022-10-28T07:41:19;100914.00;;;23.90
16956;BMP180;8594;52.052;8.354;2022-10-28T07:43:47;100916.00;;;24.60
16956;BMP180;8594;52.052;8.354;2022-10-28T07:46:14;100916.00;;;25.10
16956;BMP180;8594;52.052;8.354;2022-10-28T07:48:41;100922.00;;;25.00
16956;BMP180;8594;52.052;8.354;2022-10-28T07:51:12;100919.00;;;25.30
16956;BMP180;8594;52.052;8.354;2022-10-28T07:53:40;100921.00;;;25.90
16956;BMP180;8594;52.052;8.354;2022-10-28T07:56:10;100922.00;;;25.80
16956;BMP180;8594;52.052;8.354;2022-10-28T07:58:40;100921.00;;;26.30
16956;BMP180;8594;52.052;8.354;2022-10-28T08:01:11;100920.00;;;26.30
16956;BMP180;8594;52.052;8.354;2022-10-28T08:03:38;100922.00;;;26.40
16956;BMP180;8594;52.052;8.354;2022-10-28T08:06:08;100921.00;;;26.70
16956;BMP180;8594;52.052;8.354;2022-10-28T08:08:36;100924.00;;;26.80
16956;BMP180;8594;52.052;8.354;2022-10-28T08:11:10;100926.00;;;27.00
16956;BMP180;8594;52.052;8.354;2022-10-28T08:13:39;100926.00;;;26.70
16956;BMP180;8594;52.052;8.354;2022-10-28T08:16:07;100923.00;;;27.20
16956;BMP180;8594;52.052;8.354;2022-10-28T08:18:35;100925.00;;;27.40
16956;BMP180;8594;52.052;8.354;2022-10-28T08:21:04;100937.00;;;27.30
16956;BMP180;8594;52.052;8.354;2022-10-28T08:23:32;100940.00;;;27.30
16956;BMP180;8594;52.052;8.354;2022-10-28T08:25:59;100943.00;;;27.20
16956;BMP180;8594;52.052;8.354;2022-10-28T08:28:26;100931.00;;;27.40
16956;BMP180;8594;52.052;8.354;2022-10-28T08:30:59;100940.00;;;28.00
16956;BMP180;8594;52.052;8.354;2022-10-28T08:33:26;100935.00;;;27.80
16956;BMP180;8594;52.052;8.354;2022-10-28T08:35:53;100936.00;;;27.70
16956;BMP180;8594;52.052;8.354;2022-10-28T08:38:20;100942.00;;;27.70
16956;BMP180;8594;52.052;8.354;2022-10-28T08:40:57;100943.00;;;27.90
16956;BMP180;8594;52.052;8.354;2022-10-28T08:43:43;100935.00;;;28.00
16956;BMP180;8594;52.052;8.354;2022-10-28T08:46:26;100943.00;;;28.40
16956;BMP180;8594;52.052;8.354;2022-10-28T08:49:01;100943.00;;;28.30
16956;BMP180;8594;52.052;8.354;2022-10-28T08:51:37;100940.00;;;28.50
16956;BMP180;8594;52.052;8.354;2022-10-28T08:54:14;100938.00;;;28.40
16956;BMP180;8594;52.052;8.354;2022-10-28T08:56:46;100937.00;;;28.60
16956;BMP180;8594;52.052;8.354;2022-10-28T08:59:22;100938.00;;;28.10
16956;BMP180;8594;52.052;8.354;2022-10-28T09:01:56;100930.00;;;28.50
16956;BMP180;8594;52.052;8.354;2022-10-28T09:04:34;100943.00;;;28.60
16956;BMP180;8594;52.052;8.354;2022-10-28T09:07:03;100932.00;;;29.20
16956;BMP180;8594;52.052;8.354;2022-10-28T09:09:31;100939.00;;;28.80
16956;BMP180;8594;52.052;8.354;2022-10-28T09:12:28;100934.00;;;29.00
16956;BMP180;8594;52.052;8.354;2022-10-28T09:15:22;100939.00;;;28.80
16956;BMP180;8594;52.052;8.354;2022-10-28T09:17:54;100937.00;;;28.90
16956;BMP180;8594;52.052;8.354;2022-10-28T09:20:33;100936.00;;;28.70
16956;BMP180;8594;52.052;8.354;2022-10-28T09:23:15;100928.00;;;28.30
16956;BMP180;8594;52.052;8.354;2022-10-28T09:25:53;100930.00;;;28.40
16956;BMP180;8594;52.052;8.354;2022-10-28T09:28:42;100935.00;;;28.40
16956;BMP180;8594;52.052;8.354;2022-10-28T09:31:19;100930.00;;;27.90
16956;BMP180;8594;52.052;8.354;2022-10-28T09:34:03;100935.00;;;28.60
16956;BMP180;8594;52.052;8.354;2022-10-28T09:36:38;100928.00;;;28.10
16956;BMP180;8594;52.052;8.354;2022-10-28T09:39:16;100929.00;;;29.00
16956;BMP180;8594;52.052;8.354;2022-10-28T09:41:46;100930.00;;;29.00
16956;BMP180;8594;52.052;8.354;2022-10-28T09:44:20;100927.00;;;29.10
16956;BMP180;8594;52.052;8.354;2022-10-28T09:46:53;100928.00;;;29.60
16956;BMP180;8594;52.052;8.354;2022-10-28T09:49:26;100932.00;;;29.50
16956;BMP180;8594;52.052;8.354;2022-10-28T09:52:01;100927.00;;;29.60
16956;BMP180;8594;52.052;8.354;2022-10-28T09:54:34;100931.00;;;29.80
16956;BMP180;8594;52.052;8.354;2022-10-28T09:57:03;100936.00;;;30.30
16956;BMP180;8594;52.052;8.354;2022-10-28T09:59:30;100929.00;;;30.60
16956;BMP180;8594;52.052;8.354;2022-10-28T10:01:57;100930.00;;;30.60
16956;BMP180;8594;52.052;8.354;2022-10-28T10:04:27;100934.00;;;30.30
16956;BMP180;8594;52.052;8.354;2022-10-28T10:07:00;100930.00;;;30.70
16956;BMP180;8594;52.052;8.354;2022-10-28T10:09:33;100923.00;;;31.20
16956;BMP180;8594;52.052;8.354;2022-10-28T10:12:06;100928.00;;;30.60
16956;BMP180;8594;52.052;8.354;2022-10-28T10:14:39;100925.00;;;30.80
16956;BMP180;8594;52.052;8.354;2022-10-28T10:17:14;100920.00;;;30.70
16956;BMP180;8594;52.052;8.354;2022-10-28T10:20:02;100922.00;;;30.70
16956;BMP180;8594;52.052;8.354;2022-10-28T10:22:31;100930.00;;;30.30
16956;BMP180;8594;52.052;8.354;2022-10-28T10:24:59;100927.00;;;30.50
16956;BMP180;8594;52.052;8.354;2022-10-28T10:27:30;100934.00;;;30.60
16956;BMP180;8594;52.052;8.354;2022-10-28T10:29:58;100940.00;;;30.80
16956;BMP180;8594;52.052;8.354;2022-10-28T10:32:28;100941.00;;;30.10
16956;BMP180;8594;52.052;8.354;2022-10-28T10:35:03;100940.00;;;30.20
16956;BMP180;8594;52.052;8.354;2022-10-28T10:37:34;100932.00;;;30.10
16956;BMP180;8594;52.052;8.354;2022-10-28T10:40:17;100933.00;;;30.40
16956;BMP180;8594;52.052;8.354;2022-10-28T10:42:45;100929.00;;;30.70
16956;BMP180;8594;52.052;8.354;2022-10-28T10:45:22;100929.00;;;30.40
16956;BMP180;8594;52.052;8.354;2022-10-28T10:48:10;100933.00;;;30.60
16956;BMP180;8594;52.052;8.354;2022-10-28T10:50:40;100922.00;;;30.80
16956;BMP180;8594;52.052;8.354;2022-10-28T10:53:19;100929.00;;;30.50
16956;BMP180;8594;52.052;8.354;2022-10-28T10:55:53;100921.00;;;30.00
16956;BMP180;8594;52.052;8.354;2022-10-28T10:58:24;100917.00;;;30.00
16956;BMP180;8594;52.052;8.354;2022-10-28T11:00:55;100911.00;;;29.00
16956;BMP180;8594;52.052;8.354;2022-10-28T11:03:27;100916.00;;;29.30
16956;BMP180;8594;52.052;8.354;2022-10-28T11:05:59;100916.00;;;29.60
16956;BMP180;8594;52.052;8.354;2022-10-28T11:08:37;100918.00;;;29.50
16956;BMP180;8594;52.052;8.354;2022-10-28T11:11:12;100912.00;;;29.40
16956;BMP180;8594;52.052;8.354;2022-10-28T11:13:40;100901.00;;;29.10
16956;BMP180;8594;52.052;8.354;2022-10-28T11:16:21;100897.00;;;29.70
16956;BMP180;8594;52.052;8.354;2022-10-28T11:18:51;100902.00;;;29.70
16956;BMP180;8594;52.052;8.354;2022-10-28T11:21:47;100899.00;;;30.00
16956;BMP180;8594;52.052;8.354;2022-10-28T11:24:38;100892.00;;;29.60
16956;BMP180;8594;52.052;8.354;2022-10-28T11:27:24;100903.00;;;30.10
16956;BMP180;8594;52.052;8.354;2022-10-28T11:29:54;100897.00;;;30.00
16956;BMP180;8594;52.052;8.354;2022-10-28T11:32:35;100906.00;;;30.10
16956;BMP180;8594;52.052;8.354;2022-10-28T11:35:32;100901.00;;;29.80
16956;BMP180;8594;52.052;8.354;2022-10-28T11:38:23;100896.00;;;29.60
16956;BMP180;8594;52.052;8.354;2022-10-28T11:41:08;100891.00;;;30.00
16956;BMP180;8594;52.052;8.354;2022-10-28T11:43:49;100890.00;;;29.60
16956;BMP180;8594;52.052;8.354;2022-10-28T11:46:29;100887.00;;;30.00
16956;BMP180;8594;52.052;8.354;2022-10-28T11:49:44;100886.00;;;29.80
16956;BMP180;8594;52.052;8.354;2022-10-28T11:52:26;100889.00;;;29.80
16956;BMP180;8594;52.052;8.354;2022-10-28T11:55:12;100892.00;;;30.20
16956;BMP180;8594;52.052;8.354;2022-10-28T11:57:53;100890.00;;;30.00
16956;BMP180;8594;52.052;8.354;2022-10-28T12:00:44;100889.00;;;29.80
16956;BMP180;8594;52.052;8.354;2022-10-28T12:03:36;100879.00;;;30.30
16956;BMP180;8594;52.052;8.354;2022-10-28T12:06:15;100883.00;;;30.20
16956;BMP180;8594;52.052;8.354;2022-10-28T12:09:05;100886.00;;;30.50
16956;BMP180;8594;52.052;8.354;2022-10-28T12:11:58;100876.00;;;30.00
16956;BMP180;8594;52.052;8.354;2022-10-28T12:14:40;100873.00;;;30.00
16956;BMP180;8594;52.052;8.354;2022-10-28T12:17:16;100873.00;;;30.00
16956;BMP180;8594;52.052;8.354;2022-10-28T12:19:52;100863.00;;;30.10
16956;BMP180;8594;52.052;8.354;2022-10-28T12:22:26;100863.00;;;29.80
16956;BMP180;8594;52.052;8.354;2022-10-28T12:24:57;100867.00;;;29.60
16956;BMP180;8594;52.052;8.354;2022-10-28T12:27:35;100865.00;;;29.10
16956;BMP180;8594;52.052;8.354;2022-10-28T12:30:14;100862.00;;;29.40
16956;BMP180;8594;52.052;8.354;2022-10-28T12:32:47;100864.00;;;29.20
16956;BMP180;8594;52.052;8.354;2022-10-28T12:35:18;100859.00;;;29.00
16956;BMP180;8594;52.052;8.354;2022-10-28T12:37:54;100858.00;;;29.20
16956;BMP180;8594;52.052;8.354;2022-10-28T12:40:27;100847.00;;;29.40
16956;BMP180;8594;52.052;8.354;2022-10-28T12:43:02;100839.00;;;29.40
16956;BMP180;8594;52.052;8.354;2022-10-28T12:45:32;100849.00;;;29.00
16956;BMP180;8594;52.052;8.354;2022-10-28T12:48:05;100853.00;;;29.20
16956;BMP180;8594;52.052;8.354;2022-10-28T12:50:44;100845.00;;;29.70
16956;BMP180;8594;52.052;8.354;2022-10-28T12:53:32;100836.00;;;29.30
16956;BMP180;8594;52.052;8.354;2022-10-28T12:56:02;100837.00;;;29.30
16956;BMP180;8594;52.052;8.354;2022-10-28T12:58:39;100827.00;;;29.10
16956;BMP180;8594;52.052;8.354;2022-10-28T13:01:13;100833.00;;;29.00
16956;BMP180;8594;52.052;8.354;2022-10-28T13:03:41;100833.00;;;29.20
16956;BMP180;8594;52.052;8.354;2022-10-28T13:06:30;100836.00;;;29.20
16956;BMP180;8594;52.052;8.354;2022-10-28T13:09:35;100837.00;;;29.90
16956;BMP180;8594;52.052;8.354;2022-10-28T13:15:56;100828.00;;;29.10
16956;BMP180;8594;52.052;8.354;2022-10-28T13:19:00;100830.00;;;29.10
16956;BMP180;8594;52.052;8.354;2022-10-28T13:21:53;100824.00;;;29.20
16956;BMP180;8594;52.052;8.354;2022-10-28T13:24:28;100816.00;;;28.90
16956;BMP180;8594;52.052;8.354;2022-10-28T13:27:01;100809.00;;;28.70
16956;BMP180;8594;52.052;8.354;2022-10-28T13:29:33;100809.00;;;28.70
16956;BMP180;8594;52.052;8.354;2022-10-28T13:32:02;100814.00;;;29.00
16956;BMP180;8594;52.052;8.354;2022-10-28T13:34:32;100810.00;;;29.30
16956;BMP180;8594;52.052;8.354;2022-10-28T13:37:02;100803.00;;;29.20
16956;BMP180;8594;52.052;8.354;2022-10-28T13:39:43;100802.00;;;29.10
16956;BMP180;8594;52.052;8.354;2022-10-28T13:42:51;100819.00;;;28.80
16956;BMP180;8594;52.052;8.354;2022-10-28T13:45:46;100807.00;;;28.70
16956;BMP180;8594;52.052;8.354;2022-10-28T13:48:52;100805.00;;;28.20
16956;BMP180;8594;52.052;8.354;2022-10-28T13:51:30;100804.00;;;28.70
16956;BMP180;8594;52.052;8.354;2022-10-28T13:53:58;100809.00;;;28.40
16956;BMP180;8594;52.052;8.354;2022-10-28T13:56:39;100800.00;;;28.70
16956;BMP180;8594;52.052;8.354;2022-10-28T13:59:25;100802.00;;;28.50
16956;BMP180;8594;52.052;8.354;2022-10-28T14:02:02;100801.00;;;28.50
16956;BMP180;8594;52.052;8.354;2022-10-28T14:04:35;100806.00;;;28.20
16956;BMP180;8594;52.052;8.354;2022-10-28T14:07:23;100801.00;;;28.30
16956;BMP180;8594;52.052;8.354;2022-10-28T14:09:57;100801.00;;;28.20
16956;BMP180;8594;52.052;8.354;2022-10-28T14:12:29;100802.00;;;28.30
16956;BMP180;8594;52.052;8.354;2022-10-28T14:15:16;100809.00;;;28.50
16956;BMP180;8594;52.052;8.354;2022-10-28T14:17:48;100806.00;;;28.30
16956;BMP180;8594;52.052;8.354;2022-10-28T14:20:30;100807.00;;;28.30
16956;BMP180;8594;52.052;8.354;2022-10-28T14:22:58;100815.00;;;28.20
16956;BMP180;8594;52.052;8.354;2022-10-28T14:26:01;100806.00;;;28.00
16956;BMP180;8594;52.052;8.354;2022-10-28T14:28:50;100808.00;;;28.10
16956;BMP180;8594;52.052;8.354;2022-10-28T14:31:41;100811.00;;;28.20
16956;BMP180;8594;52.052;8.354;2022-10-28T14:34:40;100815.00;;;28.10
16956;BMP180;8594;52.052;8.354;2022-10-28T14:37:56;100822.00;;;27.90
16956;BMP180;8594;52.052;8.354;2022-10-28T14:40:33;100820.00;;;28.00
16956;BMP180;8594;52.052;8.354;2022-10-28T14:43:16;100818.00;;;28.00
16956;BMP180;8594;52.052;8.354;2022-10-28T14:46:02;100818.00;;;28.10
16956;BMP180;8594;52.052;8.354;2022-10-28T14:48:49;100818.00;;;27.70
16956;BMP180;8594;52.052;8.354;2022-10-28T14:51:20;100816.00;;;28.30
16956;BMP180;8594;52.052;8.354;2022-10-28T14:53:55;100805.00;;;28.40